• Join FlightAware (Why Join?)
  • Login
  • US Flag 
01:56AM EDT


 

Airport Tracker/Info


-or-


 

Live Flight TrackerFlight Track Log ✈ N81AU ✈ 12-Jun-2013 ✈ KECP - 41A

Flight Track Log - Related Links

Times and Time Zones

All times are in EDT time to prevent confusion due to time zone crossing. See the N81AU flight status page for this flight to view local times or setup timezone preferences in your user account.

Time Position Orientation Groundspeed Altitude Reporting Facility
EDT Latitude Longitude Course Direction KTS MPH feet Rate Location/Type
11:40AM 30.5433 -85.7603 North 105 121 6,200  Level Jacksonville Center
11:41AM 30.5808 -85.7542 North 108 124 6,800 420 Climbing Jacksonville Center
11:42AM 30.6103 -85.7503 North 108 124 7,200 180 Climbing Jacksonville Center
11:43AM 30.6458 -85.7417 12° North 142 163 7,200 -60 Level Jacksonville Center
11:44AM 30.6897 -85.7406 North 155 178 7,100 -60 Descending Jacksonville Center
11:45AM 30.7314 -85.7492 350° North 160 184 7,100  Level Jacksonville Center
11:46AM 30.7750 -85.7578 350° North 154 177 7,100 -60 Level Jacksonville Center
11:47AM 30.8208 -85.7639 353° North 155 178 7,000  Descending Jacksonville Center
11:48AM 30.8625 -85.7653 358° North 155 178 7,100  Climbing Jacksonville Center
11:49AM 30.9064 -85.7642 North 152 175 7,100  Level Jacksonville Center
11:50AM 30.9464 -85.7531 13° North 159 183 7,100 -60 Level Jacksonville Center
11:51AM 30.9906 -85.7353 19° North 156 180 7,000  Descending Jacksonville Center
11:52AM 31.0325 -85.7219 15° North 157 181 7,100  Climbing Jacksonville Center
11:53AM 31.0728 -85.7061 19° North 153 176 7,100  Level Jacksonville Center
11:54AM 31.1125 -85.6928 16° North 156 180 7,100  Level Jacksonville Center
11:55AM 31.1525 -85.6794 16° North 156 180 7,100 -60 Level Jacksonville Center
11:56AM 31.1989 -85.6614 North 153 176 7,000  Descending Jacksonville Center
11:57AM 31.2369 -85.6456 20° North 149 171 7,100  Climbing Jacksonville Center
11:58AM 31.2747 -85.6319 17° North 147 169 7,100  Level Jacksonville Center
11:59AM 31.3128 -85.6111 25° Northeast 148 170 7,100  Level Jacksonville Center
12:00PM 31.3528 -85.5928 21° North 148 170 7,100 -60 Level Jacksonville Center
12:01PM 31.3906 -85.5769 20° North 151 174 7,000 -60 Descending Jacksonville Center
12:02PM 31.4328 -85.5586 20° North 151 174 7,000  Level Jacksonville Center
12:03PM 31.4686 -85.5428 21° North 153 176 7,000  Level Jacksonville Center
12:04PM 31.5147 -85.5414 North 150 173 7,000  Level Jacksonville Center
12:05PM 31.5583 -85.5500 350° North 149 171 7,000  Level Jacksonville Center
12:06PM 31.5956 -85.5633 343° North 148 170 7,100  Climbing Jacksonville Center
12:07PM 31.6347 -85.5839 336° Northwest 152 175 7,100 -60 Level Jacksonville Center
12:08PM 31.6739 -85.6069 333° Northwest 154 177 7,000  Descending Jacksonville Center
12:10PM 31.7156 -85.6108 355° North 154 177 7,100  Climbing Jacksonville Center
12:11PM 31.7553 -85.6192 350° North 146 168 7,100  Level Jacksonville Center
12:12PM 31.7967 -85.6350 342° North 143 165 7,100  Level Jacksonville Center
12:13PM 31.8339 -85.6461 346° North 147 169 7,100  Level Jacksonville Center
12:14PM 31.8756 -85.6569 348° North 147 169 7,100  Level Jacksonville Center
12:16PM 31.9397 -85.6791 344° North  Level FlightAware Approximate
12:23PM 32.1701 -85.7588 343° North  Level FlightAware Approximate
12:24PM 32.2029 -85.7707 343° North  Level FlightAware Approximate
12:25PM 32.2357 -85.7826 343° North  Level FlightAware Approximate
12:26PM 32.2684 -85.7946 343° North  Level FlightAware Approximate
12:27PM 32.3014 -85.8056 345° North  Level FlightAware Approximate
12:28PM 32.3346 -85.8158 345° North  Level FlightAware Approximate